sensor_id;sensor_type;location;lat;lon;timestamp;pressure;altitude;pressure_sealevel;temperature;humidity
36378;BME280;22402;42.746;23.606;2022-09-09T00:00:41;93745.66;;;20.94;60.88
36378;BME280;22402;42.746;23.606;2022-09-09T00:03:17;93752.56;;;20.89;60.72
36378;BME280;22402;42.746;23.606;2022-09-09T00:09:04;93737.06;;;20.79;61.48
36378;BME280;22402;42.746;23.606;2022-09-09T00:14:25;93729.25;;;20.64;61.99
36378;BME280;22402;42.746;23.606;2022-09-09T00:17:02;93736.97;;;20.53;61.99
36378;BME280;22402;42.746;23.606;2022-09-09T00:19:43;93725.88;;;20.42;63.05
36378;BME280;22402;42.746;23.606;2022-09-09T00:22:40;93720.06;;;20.25;63.47
36378;BME280;22402;42.746;23.606;2022-09-09T00:25:15;93719.25;;;20.18;63.65
36378;BME280;22402;42.746;23.606;2022-09-09T00:27:49;93722.03;;;20.10;64.46
36378;BME280;22402;42.746;23.606;2022-09-09T00:30:18;93717.16;;;20.07;64.69
36378;BME280;22402;42.746;23.606;2022-09-09T00:32:44;93712.63;;;20.01;64.65
36378;BME280;22402;42.746;23.606;2022-09-09T00:37:57;93708.13;;;19.95;65.02
36378;BME280;22402;42.746;23.606;2022-09-09T00:40:40;93697.50;;;19.88;64.90
36378;BME280;22402;42.746;23.606;2022-09-09T00:43:26;93700.16;;;19.88;64.84
36378;BME280;22402;42.746;23.606;2022-09-09T00:59:52;93698.75;;;19.92;65.33
36378;BME280;22402;42.746;23.606;2022-09-09T01:02:27;93705.69;;;19.93;65.43
36378;BME280;22402;42.746;23.606;2022-09-09T01:04:53;93694.25;;;19.93;65.00
36378;BME280;22402;42.746;23.606;2022-09-09T01:07:19;93693.84;;;19.89;65.10
36378;BME280;22402;42.746;23.606;2022-09-09T01:09:57;93705.63;;;19.87;64.20
36378;BME280;22402;42.746;23.606;2022-09-09T01:12:39;93701.56;;;19.84;64.88
36378;BME280;22402;42.746;23.606;2022-09-09T01:15:10;93694.44;;;19.85;65.39
36378;BME280;22402;42.746;23.606;2022-09-09T01:17:51;93695.81;;;19.80;64.88
36378;BME280;22402;42.746;23.606;2022-09-09T01:20:27;93695.78;;;19.74;65.05
36378;BME280;22402;42.746;23.606;2022-09-09T01:23:16;93695.75;;;19.67;64.79
36378;BME280;22402;42.746;23.606;2022-09-09T01:26:09;93701.03;;;19.67;64.83
36378;BME280;22402;42.746;23.606;2022-09-09T01:28:38;93701.03;;;19.67;64.93
36378;BME280;22402;42.746;23.606;2022-09-09T01:31:06;93692.66;;;19.64;64.86
36378;BME280;22402;42.746;23.606;2022-09-09T01:33:34;93695.28;;;19.64;64.79
36378;BME280;22402;42.746;23.606;2022-09-09T01:36:04;93696.50;;;19.61;65.29
36378;BME280;22402;42.746;23.606;2022-09-09T01:38:32;93687.47;;;19.49;65.80
36378;BME280;22402;42.746;23.606;2022-09-09T01:41:00;93700.81;;;19.41;66.08
36378;BME280;22402;42.746;23.606;2022-09-09T01:43:26;93704.22;;;19.34;66.56
36378;BME280;22402;42.746;23.606;2022-09-09T01:45:55;93699.44;;;19.23;66.65
36378;BME280;22402;42.746;23.606;2022-09-09T01:48:22;93703.66;;;19.18;66.98
36378;BME280;22402;42.746;23.606;2022-09-09T01:50:48;93702.44;;;19.13;66.92
36378;BME280;22402;42.746;23.606;2022-09-09T01:53:15;93703.75;;;19.03;67.02
36378;BME280;22402;42.746;23.606;2022-09-09T01:55:57;93703.94;;;19.01;67.07
36378;BME280;22402;42.746;23.606;2022-09-09T02:03:56;93708.72;;;18.91;67.12
36378;BME280;22402;42.746;23.606;2022-09-09T02:06:29;93722.34;;;18.95;66.42
36378;BME280;22402;42.746;23.606;2022-09-09T02:08:57;93716.72;;;18.98;66.76
36378;BME280;22402;42.746;23.606;2022-09-09T02:11:26;93713.69;;;19.01;66.52
36378;BME280;22402;42.746;23.606;2022-09-09T02:14:09;93715.50;;;19.00;66.79
36378;BME280;22402;42.746;23.606;2022-09-09T02:16:52;93723.25;;;19.02;66.72
36378;BME280;22402;42.746;23.606;2022-09-09T02:19:25;93714.31;;;19.03;66.46
36378;BME280;22402;42.746;23.606;2022-09-09T02:21:53;93715.88;;;18.97;66.61
36378;BME280;22402;42.746;23.606;2022-09-09T02:24:20;93706.06;;;18.91;66.64
36378;BME280;22402;42.746;23.606;2022-09-09T02:26:49;93712.31;;;18.83;66.80
36378;BME280;22402;42.746;23.606;2022-09-09T02:29:28;93709.56;;;18.77;67.17
36378;BME280;22402;42.746;23.606;2022-09-09T02:31:59;93710.78;;;18.74;67.14
36378;BME280;22402;42.746;23.606;2022-09-09T02:34:27;93698.56;;;18.73;67.34
36378;BME280;22402;42.746;23.606;2022-09-09T02:36:53;93695.66;;;18.68;67.14
36378;BME280;22402;42.746;23.606;2022-09-09T02:39:20;93700.09;;;18.67;67.09
36378;BME280;22402;42.746;23.606;2022-09-09T02:41:45;93699.31;;;18.67;67.12
36378;BME280;22402;42.746;23.606;2022-09-09T02:44:12;93698.31;;;18.68;67.53
36378;BME280;22402;42.746;23.606;2022-09-09T02:46:48;93694.66;;;18.69;67.24
36378;BME280;22402;42.746;23.606;2022-09-09T03:22:49;93705.56;;;18.81;66.41
36378;BME280;22402;42.746;23.606;2022-09-09T03:25:15;93710.84;;;18.81;65.65
36378;BME280;22402;42.746;23.606;2022-09-09T03:27:40;93696.56;;;18.75;66.35
36378;BME280;22402;42.746;23.606;2022-09-09T03:30:06;93703.31;;;18.78;66.74
36378;BME280;22402;42.746;23.606;2022-09-09T03:32:31;93700.38;;;18.73;66.46
36378;BME280;22402;42.746;23.606;2022-09-09T03:34:57;93699.38;;;18.74;67.16
36378;BME280;22402;42.746;23.606;2022-09-09T03:37:22;93702.59;;;18.69;66.89
36378;BME280;22402;42.746;23.606;2022-09-09T03:39:48;93704.59;;;18.67;67.10
36378;BME280;22402;42.746;23.606;2022-09-09T03:42:14;93707.78;;;18.62;67.94
36378;BME280;22402;42.746;23.606;2022-09-09T03:44:40;93707.69;;;18.56;67.99
36378;BME280;22402;42.746;23.606;2022-09-09T03:47:05;93706.72;;;18.57;68.46
36378;BME280;22402;42.746;23.606;2022-09-09T03:49:31;93703.53;;;18.47;68.54
36378;BME280;22402;42.746;23.606;2022-09-09T03:51:56;93710.94;;;18.36;69.18
36378;BME280;22402;42.746;23.606;2022-09-09T03:54:23;93712.06;;;18.27;69.38
36378;BME280;22402;42.746;23.606;2022-09-09T03:56:48;93712.59;;;18.22;69.84
36378;BME280;22402;42.746;23.606;2022-09-09T03:59:13;93714.16;;;18.17;69.53
36378;BME280;22402;42.746;23.606;2022-09-09T04:01:39;93720.97;;;18.11;69.61
36378;BME280;22402;42.746;23.606;2022-09-09T04:04:04;93719.06;;;18.05;70.04
36378;BME280;22402;42.746;23.606;2022-09-09T04:06:29;93717.00;;;18.01;69.91
36378;BME280;22402;42.746;23.606;2022-09-09T04:08:55;93706.97;;;17.96;69.98
36378;BME280;22402;42.746;23.606;2022-09-09T04:11:20;93709.38;;;17.91;70.42
36378;BME280;22402;42.746;23.606;2022-09-09T04:13:46;93708.44;;;17.84;70.56
36378;BME280;22402;42.746;23.606;2022-09-09T04:16:12;93710.78;;;17.79;70.76
36378;BME280;22402;42.746;23.606;2022-09-09T04:18:37;93713.59;;;17.77;71.15
36378;BME280;22402;42.746;23.606;2022-09-09T04:21:03;93717.59;;;17.73;71.45
36378;BME280;22402;42.746;23.606;2022-09-09T04:23:28;93722.22;;;17.71;71.48
36378;BME280;22402;42.746;23.606;2022-09-09T04:25:55;93726.25;;;17.67;71.97
36378;BME280;22402;42.746;23.606;2022-09-09T04:28:23;93720.97;;;17.67;71.77
36378;BME280;22402;42.746;23.606;2022-09-09T04:30:50;93728.88;;;17.67;72.37
36378;BME280;22402;42.746;23.606;2022-09-09T04:33:15;93733.31;;;17.66;72.12
36378;BME280;22402;42.746;23.606;2022-09-09T04:35:46;93727.66;;;17.69;72.28
36378;BME280;22402;42.746;23.606;2022-09-09T04:38:12;93728.16;;;17.73;72.37
36378;BME280;22402;42.746;23.606;2022-09-09T04:40:37;93720.41;;;17.71;72.63
36378;BME280;22402;42.746;23.606;2022-09-09T04:43:03;93708.69;;;17.74;72.33
36378;BME280;22402;42.746;23.606;2022-09-09T04:45:28;93701.09;;;17.79;72.56
36378;BME280;22402;42.746;23.606;2022-09-09T04:47:53;93711.06;;;17.84;72.13
36378;BME280;22402;42.746;23.606;2022-09-09T04:50:19;93712.97;;;17.90;71.94
36378;BME280;22402;42.746;23.606;2022-09-09T04:52:45;93716.34;;;17.98;71.98
36378;BME280;22402;42.746;23.606;2022-09-09T04:55:10;93720.91;;;18.05;72.63
36378;BME280;22402;42.746;23.606;2022-09-09T04:57:36;93712.53;;;18.16;72.34
36378;BME280;22402;42.746;23.606;2022-09-09T05:00:02;93707.59;;;18.28;71.85
36378;BME280;22402;42.746;23.606;2022-09-09T05:02:27;93700.28;;;18.44;70.92
36378;BME280;22402;42.746;23.606;2022-09-09T05:04:53;93707.31;;;18.59;70.47
36378;BME280;22402;42.746;23.606;2022-09-09T05:07:18;93708.75;;;18.76;69.36
36378;BME280;22402;42.746;23.606;2022-09-09T05:09:43;93709.53;;;18.92;69.67
36378;BME280;22402;42.746;23.606;2022-09-09T05:12:08;93711.94;;;19.08;68.74
36378;BME280;22402;42.746;23.606;2022-09-09T05:14:34;93703.28;;;19.21;68.65
36378;BME280;22402;42.746;23.606;2022-09-09T05:16:59;93697.91;;;19.35;67.80
36378;BME280;22402;42.746;23.606;2022-09-09T05:19:24;93696.00;;;19.51;67.30
36378;BME280;22402;42.746;23.606;2022-09-09T05:21:50;93705.13;;;19.70;66.62
36378;BME280;22402;42.746;23.606;2022-09-09T05:24:15;93697.91;;;19.85;66.09
36378;BME280;22402;42.746;23.606;2022-09-09T05:26:41;93692.72;;;20.05;65.33
36378;BME280;22402;42.746;23.606;2022-09-09T05:29:09;93697.28;;;20.24;65.66
36378;BME280;22402;42.746;23.606;2022-09-09T05:31:35;93682.69;;;20.42;65.17
36378;BME280;22402;42.746;23.606;2022-09-09T05:34:01;93686.66;;;20.59;63.75
36378;BME280;22402;42.746;23.606;2022-09-09T05:36:26;93679.97;;;20.77;62.95
36378;BME280;22402;42.746;23.606;2022-09-09T05:38:52;93672.66;;;20.92;62.44
36378;BME280;22402;42.746;23.606;2022-09-09T05:41:17;93674.50;;;21.11;61.94
36378;BME280;22402;42.746;23.606;2022-09-09T05:43:43;93665.13;;;21.29;61.15
36378;BME280;22402;42.746;23.606;2022-09-09T05:46:15;93670.25;;;21.44;61.05
36378;BME280;22402;42.746;23.606;2022-09-09T05:48:44;93675.56;;;21.64;58.20
36378;BME280;22402;42.746;23.606;2022-09-09T05:51:12;93685.13;;;21.78;57.73
36378;BME280;22402;42.746;23.606;2022-09-09T05:53:38;93686.94;;;21.91;57.66
36378;BME280;22402;42.746;23.606;2022-09-09T05:56:09;93687.72;;;22.04;57.54
36378;BME280;22402;42.746;23.606;2022-09-09T05:58:35;93693.00;;;22.18;58.32
36378;BME280;22402;42.746;23.606;2022-09-09T06:01:02;93690.09;;;22.33;57.12
36378;BME280;22402;42.746;23.606;2022-09-09T06:03:27;93687.97;;;22.55;56.70
36378;BME280;22402;42.746;23.606;2022-09-09T06:06:00;93688.72;;;22.68;56.80
36378;BME280;22402;42.746;23.606;2022-09-09T06:08:26;93688.25;;;22.78;57.06
36378;BME280;22402;42.746;23.606;2022-09-09T06:10:51;93696.97;;;22.92;56.87
36378;BME280;22402;42.746;23.606;2022-09-09T06:13:16;93688.56;;;23.02;56.92
36378;BME280;22402;42.746;23.606;2022-09-09T06:15:50;93688.63;;;23.20;56.31
36378;BME280;22402;42.746;23.606;2022-09-09T06:18:15;93688.28;;;23.41;55.35
36378;BME280;22402;42.746;23.606;2022-09-09T06:20:41;93690.41;;;23.58;54.79
36378;BME280;22402;42.746;23.606;2022-09-09T06:23:06;93692.56;;;23.67;55.05
36378;BME280;22402;42.746;23.606;2022-09-09T06:25:31;93696.81;;;23.75;54.98
36378;BME280;22402;42.746;23.606;2022-09-09T06:27:57;93692.03;;;23.84;53.88
36378;BME280;22402;42.746;23.606;2022-09-09T06:30:22;93693.31;;;24.00;53.62
36378;BME280;22402;42.746;23.606;2022-09-09T06:32:47;93694.06;;;24.07;53.36
36378;BME280;22402;42.746;23.606;2022-09-09T06:35:13;93700.81;;;24.09;53.74
36378;BME280;22402;42.746;23.606;2022-09-09T06:37:38;93710.19;;;24.12;53.60
36378;BME280;22402;42.746;23.606;2022-09-09T06:40:04;93710.72;;;24.21;53.80
36378;BME280;22402;42.746;23.606;2022-09-09T06:42:30;93704.28;;;24.28;51.55
36378;BME280;22402;42.746;23.606;2022-09-09T06:44:55;93699.31;;;24.32;51.33
36378;BME280;22402;42.746;23.606;2022-09-09T06:47:20;93706.72;;;24.30;51.31
36378;BME280;22402;42.746;23.606;2022-09-09T06:49:46;93707.41;;;24.25;50.73
36378;BME280;22402;42.746;23.606;2022-09-09T06:52:11;93711.31;;;24.23;50.90
36378;BME280;22402;42.746;23.606;2022-09-09T06:54:36;93698.59;;;24.25;51.20
36378;BME280;22402;42.746;23.606;2022-09-09T06:57:02;93696.66;;;24.32;51.55
36378;BME280;22402;42.746;23.606;2022-09-09T06:59:30;93697.03;;;24.36;51.38
36378;BME280;22402;42.746;23.606;2022-09-09T07:01:55;93698.44;;;24.38;51.74
36378;BME280;22402;42.746;23.606;2022-09-09T07:04:21;93702.09;;;24.44;52.14
36378;BME280;22402;42.746;23.606;2022-09-09T07:06:46;93705.28;;;24.52;52.44
36378;BME280;22402;42.746;23.606;2022-09-09T07:09:14;93710.50;;;24.59;51.72
36378;BME280;22402;42.746;23.606;2022-09-09T07:11:45;93711.91;;;24.62;51.35
36378;BME280;22402;42.746;23.606;2022-09-09T07:14:11;93713.31;;;24.64;52.01
36378;BME280;22402;42.746;23.606;2022-09-09T07:16:36;93712.88;;;24.67;52.75
36378;BME280;22402;42.746;23.606;2022-09-09T07:19:03;93704.22;;;24.72;51.70
36378;BME280;22402;42.746;23.606;2022-09-09T07:21:29;93709.56;;;24.72;52.22
36378;BME280;22402;42.746;23.606;2022-09-09T07:23:55;93709.69;;;24.77;52.11
36378;BME280;22402;42.746;23.606;2022-09-09T07:26:23;93703.44;;;24.83;52.88
36378;BME280;22402;42.746;23.606;2022-09-09T07:28:49;93702.78;;;24.88;52.71
36378;BME280;22402;42.746;23.606;2022-09-09T07:31:19;93708.72;;;24.90;51.25
36378;BME280;22402;42.746;23.606;2022-09-09T07:33:45;93696.84;;;24.86;51.17
36378;BME280;22402;42.746;23.606;2022-09-09T07:36:21;93693.41;;;24.97;51.20
36378;BME280;22402;42.746;23.606;2022-09-09T07:38:49;93694.72;;;25.06;51.75
36378;BME280;22402;42.746;23.606;2022-09-09T07:41:39;93691.31;;;25.17;52.14
36378;BME280;22402;42.746;23.606;2022-09-09T07:44:10;93698.09;;;25.32;51.33
36378;BME280;22402;42.746;23.606;2022-09-09T07:46:36;93699.94;;;25.43;49.73
36378;BME280;22402;42.746;23.606;2022-09-09T07:49:02;93695.34;;;25.50;49.36
36378;BME280;22402;42.746;23.606;2022-09-09T07:51:34;93693.81;;;25.54;49.68
36378;BME280;22402;42.746;23.606;2022-09-09T07:54:02;93699.88;;;25.61;49.67
36378;BME280;22402;42.746;23.606;2022-09-09T07:56:28;93695.00;;;25.70;49.49
36378;BME280;22402;42.746;23.606;2022-09-09T07:58:55;93694.31;;;25.75;49.59
36378;BME280;22402;42.746;23.606;2022-09-09T08:01:34;93691.75;;;25.80;49.46
36378;BME280;22402;42.746;23.606;2022-09-09T08:04:05;93692.25;;;25.88;49.16
36378;BME280;22402;42.746;23.606;2022-09-09T08:06:41;93698.28;;;26.07;49.43
36378;BME280;22402;42.746;23.606;2022-09-09T08:09:08;93707.69;;;26.22;48.17
36378;BME280;22402;42.746;23.606;2022-09-09T08:11:34;93703.34;;;26.32;47.65
36378;BME280;22402;42.746;23.606;2022-09-09T08:13:59;93702.31;;;26.45;47.28
36378;BME280;22402;42.746;23.606;2022-09-09T08:16:27;93705.22;;;26.55;47.03
36378;BME280;22402;42.746;23.606;2022-09-09T08:18:53;93707.63;;;26.69;47.60
36378;BME280;22402;42.746;23.606;2022-09-09T08:21:23;93705.59;;;26.88;48.43
36378;BME280;22402;42.746;23.606;2022-09-09T08:23:51;93703.53;;;27.07;48.34
36378;BME280;22402;42.746;23.606;2022-09-09T08:26:21;93697.44;;;27.23;46.76
36378;BME280;22402;42.746;23.606;2022-09-09T08:28:51;93705.41;;;27.35;45.32
36378;BME280;22402;42.746;23.606;2022-09-09T08:31:26;93701.59;;;27.47;45.87
36378;BME280;22402;42.746;23.606;2022-09-09T08:33:51;93704.13;;;27.54;45.80
36378;BME280;22402;42.746;23.606;2022-09-09T08:36:19;93698.16;;;27.64;45.47
36378;BME280;22402;42.746;23.606;2022-09-09T08:38:49;93704.63;;;27.68;45.66
36378;BME280;22402;42.746;23.606;2022-09-09T08:44:04;93698.63;;;27.61;45.41
36378;BME280;22402;42.746;23.606;2022-09-09T08:51:42;93682.47;;;27.72;44.97
36378;BME280;22402;42.746;23.606;2022-09-09T08:54:08;93679.97;;;27.83;45.17
36378;BME280;22402;42.746;23.606;2022-09-09T08:56:34;93679.56;;;27.91;45.13
36378;BME280;22402;42.746;23.606;2022-09-09T08:59:01;93681.28;;;27.97;45.08
36378;BME280;22402;42.746;23.606;2022-09-09T09:01:49;93668.44;;;27.99;44.38
36378;BME280;22402;42.746;23.606;2022-09-09T09:09:28;93674.63;;;28.00;44.63
36378;BME280;22402;42.746;23.606;2022-09-09T09:12:00;93677.03;;;28.01;45.29
36378;BME280;22402;42.746;23.606;2022-09-09T09:14:28;93673.63;;;28.06;45.11
36378;BME280;22402;42.746;23.606;2022-09-09T09:17:05;93661.59;;;28.08;45.67
36378;BME280;22402;42.746;23.606;2022-09-09T09:19:35;93669.66;;;28.08;45.64
36378;BME280;22402;42.746;23.606;2022-09-09T09:22:22;93674.84;;;27.98;45.53
36378;BME280;22402;42.746;23.606;2022-09-09T09:24:55;93676.56;;;27.87;45.07
36378;BME280;22402;42.746;23.606;2022-09-09T09:29:59;93680.13;;;27.59;46.13
36378;BME280;22402;42.746;23.606;2022-09-09T09:32:28;93667.97;;;27.52;46.24
36378;BME280;22402;42.746;23.606;2022-09-09T09:34:57;93678.31;;;27.48;46.86
36378;BME280;22402;42.746;23.606;2022-09-09T09:37:29;93668.44;;;27.48;46.08
36378;BME280;22402;42.746;23.606;2022-09-09T09:39:55;93667.78;;;27.41;46.67
36378;BME280;22402;42.746;23.606;2022-09-09T09:42:20;93671.75;;;27.39;47.00
36378;BME280;22402;42.746;23.606;2022-09-09T09:44:45;93674.09;;;27.35;47.31
36378;BME280;22402;42.746;23.606;2022-09-09T09:47:29;93668.16;;;27.33;47.86
36378;BME280;22402;42.746;23.606;2022-09-09T09:49:58;93682.03;;;27.30;46.96
36378;BME280;22402;42.746;23.606;2022-09-09T09:52:26;93675.22;;;27.22;47.78
36378;BME280;22402;42.746;23.606;2022-09-09T09:54:53;93673.59;;;27.21;47.85
36378;BME280;22402;42.746;23.606;2022-09-09T09:57:24;93669.06;;;27.22;47.70
36378;BME280;22402;42.746;23.606;2022-09-09T10:00:01;93667.34;;;27.16;48.05
36378;BME280;22402;42.746;23.606;2022-09-09T10:02:37;93666.88;;;27.19;47.90
36378;BME280;22402;42.746;23.606;2022-09-09T10:05:27;93666.94;;;27.24;49.00
36378;BME280;22402;42.746;23.606;2022-09-09T10:08:10;93657.88;;;27.25;48.00
36378;BME280;22402;42.746;23.606;2022-09-09T10:21:40;93651.22;;;27.27;47.02
36378;BME280;22402;42.746;23.606;2022-09-09T10:27:05;93655.59;;;27.17;48.58
36378;BME280;22402;42.746;23.606;2022-09-09T10:38:12;93668.16;;;27.16;48.63
36378;BME280;22402;42.746;23.606;2022-09-09T10:40:43;93665.50;;;27.16;48.93
36378;BME280;22402;42.746;23.606;2022-09-09T10:43:20;93671.50;;;27.12;48.69
36378;BME280;22402;42.746;23.606;2022-09-09T10:56:30;93661.41;;;26.85;50.43
36378;BME280;22402;42.746;23.606;2022-09-09T10:59:05;93667.47;;;26.80;51.00
36378;BME280;22402;42.746;23.606;2022-09-09T11:01:39;93665.50;;;26.76;50.96
36378;BME280;22402;42.746;23.606;2022-09-09T11:04:34;93658.44;;;26.70;51.11
36378;BME280;22402;42.746;23.606;2022-09-09T11:07:02;93664.03;;;26.68;51.55
36378;BME280;22402;42.746;23.606;2022-09-09T11:09:33;93669.03;;;26.65;51.51
36378;BME280;22402;42.746;23.606;2022-09-09T11:12:01;93662.53;;;26.61;52.47
36378;BME280;22402;42.746;23.606;2022-09-09T11:14:41;93660.09;;;26.59;52.37
36378;BME280;22402;42.746;23.606;2022-09-09T11:17:36;93663.81;;;26.58;52.79
36378;BME280;22402;42.746;23.606;2022-09-09T11:20:05;93666.75;;;26.56;53.64
36378;BME280;22402;42.746;23.606;2022-09-09T11:22:37;93665.69;;;26.57;53.55
36378;BME280;22402;42.746;23.606;2022-09-09T11:25:15;93673.72;;;26.57;53.21
36378;BME280;22402;42.746;23.606;2022-09-09T11:30:55;93650.47;;;26.58;53.44
36378;BME280;22402;42.746;23.606;2022-09-09T11:38:51;93643.72;;;26.55;53.27
36378;BME280;22402;42.746;23.606;2022-09-09T11:41:18;93645.38;;;26.56;53.91
36378;BME280;22402;42.746;23.606;2022-09-09T11:43:46;93631.63;;;26.53;53.58
36378;BME280;22402;42.746;23.606;2022-09-09T11:46:14;93634.69;;;26.56;53.52
36378;BME280;22402;42.746;23.606;2022-09-09T11:48:56;93640.81;;;26.57;52.91
36378;BME280;22402;42.746;23.606;2022-09-09T11:51:29;93626.66;;;26.56;52.95
36378;BME280;22402;42.746;23.606;2022-09-09T11:56:46;93607.94;;;26.56;52.83
36378;BME280;22402;42.746;23.606;2022-09-09T11:59:29;93605.00;;;26.58;53.38
36378;BME280;22402;42.746;23.606;2022-09-09T12:04:31;93605.59;;;26.60;54.39
36378;BME280;22402;42.746;23.606;2022-09-09T12:07:04;93602.34;;;26.58;53.76
36378;BME280;22402;42.746;23.606;2022-09-09T12:09:51;93597.31;;;26.62;54.39
36378;BME280;22402;42.746;23.606;2022-09-09T12:14:58;93590.94;;;26.63;52.87
36378;BME280;22402;42.746;23.606;2022-09-09T12:17:27;93580.78;;;26.65;53.25
36378;BME280;22402;42.746;23.606;2022-09-09T12:22:49;93591.59;;;26.70;52.68
36378;BME280;22402;42.746;23.606;2022-09-09T12:28:20;93595.50;;;26.79;52.54
36378;BME280;22402;42.746;23.606;2022-09-09T12:33:39;93579.00;;;26.99;53.66
36378;BME280;22402;42.746;23.606;2022-09-09T12:36:06;93578.84;;;27.05;53.55
36378;BME280;22402;42.746;23.606;2022-09-09T12:38:37;93569.25;;;27.10;54.00
36378;BME280;22402;42.746;23.606;2022-09-09T12:41:04;93567.16;;;27.12;54.00
36378;BME280;22402;42.746;23.606;2022-09-09T12:43:30;93565.06;;;27.14;53.74
36378;BME280;22402;42.746;23.606;2022-09-09T12:46:00;93559.13;;;27.12;53.42
36378;BME280;22402;42.746;23.606;2022-09-09T12:48:40;93563.81;;;27.16;53.22
36378;BME280;22402;42.746;23.606;2022-09-09T12:51:26;93557.69;;;27.21;53.78
36378;BME280;22402;42.746;23.606;2022-09-09T12:53:53;93551.88;;;27.24;53.43
36378;BME280;22402;42.746;23.606;2022-09-09T12:56:21;93547.41;;;27.30;53.72
36378;BME280;22402;42.746;23.606;2022-09-09T12:58:49;93554.72;;;27.34;52.86
36378;BME280;22402;42.746;23.606;2022-09-09T13:03:49;93538.31;;;27.31;50.45
36378;BME280;22402;42.746;23.606;2022-09-09T13:06:28;93543.84;;;27.24;50.77
36378;BME280;22402;42.746;23.606;2022-09-09T13:08:56;93538.44;;;27.19;51.48
36378;BME280;22402;42.746;23.606;2022-09-09T13:11:46;93537.84;;;27.17;52.12
36378;BME280;22402;42.746;23.606;2022-09-09T13:14:17;93541.09;;;27.19;53.68
36378;BME280;22402;42.746;23.606;2022-09-09T13:16:57;93536.78;;;27.18;53.09
36378;BME280;22402;42.746;23.606;2022-09-09T13:19:23;93544.81;;;27.18;53.52
36378;BME280;22402;42.746;23.606;2022-09-09T13:21:49;93543.19;;;27.17;53.61
36378;BME280;22402;42.746;23.606;2022-09-09T13:24:35;93548.44;;;27.12;53.15
36378;BME280;22402;42.746;23.606;2022-09-09T13:27:28;93549.97;;;27.08;53.69
36378;BME280;22402;42.746;23.606;2022-09-09T13:29:55;93543.25;;;27.05;53.54
36378;BME280;22402;42.746;23.606;2022-09-09T13:32:21;93537.59;;;27.01;53.73
36378;BME280;22402;42.746;23.606;2022-09-09T13:35:21;93542.34;;;26.99;53.50
36378;BME280;22402;42.746;23.606;2022-09-09T13:37:47;93539.09;;;26.97;53.85
36378;BME280;22402;42.746;23.606;2022-09-09T13:40:18;93547.13;;;26.97;54.63
36378;BME280;22402;42.746;23.606;2022-09-09T13:42:44;93540.75;;;26.98;54.18
36378;BME280;22402;42.746;23.606;2022-09-09T13:45:18;93543.66;;;26.97;54.68
36378;BME280;22402;42.746;23.606;2022-09-09T13:47:44;93535.88;;;26.95;54.46
36378;BME280;22402;42.746;23.606;2022-09-09T13:50:20;93532.38;;;26.95;54.67
36378;BME280;22402;42.746;23.606;2022-09-09T13:52:47;93527.59;;;26.97;53.64
36378;BME280;22402;42.746;23.606;2022-09-09T13:55:12;93531.06;;;26.97;54.56
36378;BME280;22402;42.746;23.606;2022-09-09T13:57:38;93523.53;;;26.94;55.69
36378;BME280;22402;42.746;23.606;2022-09-09T14:00:04;93527.03;;;26.95;56.00
36378;BME280;22402;42.746;23.606;2022-09-09T14:02:29;93519.47;;;26.92;56.68
36378;BME280;22402;42.746;23.606;2022-09-09T14:04:55;93530.19;;;26.92;56.94
36378;BME280;22402;42.746;23.606;2022-09-09T14:07:20;93529.38;;;26.91;56.26
36378;BME280;22402;42.746;23.606;2022-09-09T14:09:46;93521.94;;;26.93;55.57
36378;BME280;22402;42.746;23.606;2022-09-09T14:12:12;93519.81;;;26.95;55.33
36378;BME280;22402;42.746;23.606;2022-09-09T14:14:38;93510.25;;;26.99;55.35
36378;BME280;22402;42.746;23.606;2022-09-09T14:17:04;93510.56;;;27.03;54.91
36378;BME280;22402;42.746;23.606;2022-09-09T14:19:29;93500.19;;;27.07;55.02
36378;BME280;22402;42.746;23.606;2022-09-09T14:21:55;93495.97;;;27.11;55.23
36378;BME280;22402;42.746;23.606;2022-09-09T14:24:20;93496.53;;;27.13;55.22
36378;BME280;22402;42.746;23.606;2022-09-09T14:26:46;93503.53;;;27.14;54.27
36378;BME280;22402;42.746;23.606;2022-09-09T14:29:11;93505.75;;;27.17;55.60
36378;BME280;22402;42.746;23.606;2022-09-09T14:31:36;93500.69;;;27.20;55.23
36378;BME280;22402;42.746;23.606;2022-09-09T14:34:02;93495.13;;;27.22;53.92
36378;BME280;22402;42.746;23.606;2022-09-09T14:36:27;93490.06;;;27.25;51.99
36378;BME280;22402;42.746;23.606;2022-09-09T14:38:52;93489.75;;;27.22;52.62
36378;BME280;22402;42.746;23.606;2022-09-09T14:41:19;93485.94;;;27.18;52.02
36378;BME280;22402;42.746;23.606;2022-09-09T14:43:45;93483.75;;;27.15;52.78
36378;BME280;22402;42.746;23.606;2022-09-09T14:46:16;93482.72;;;27.16;52.86
36378;BME280;22402;42.746;23.606;2022-09-09T14:48:41;93484.34;;;27.17;52.95
36378;BME280;22402;42.746;23.606;2022-09-09T14:51:15;93480.03;;;27.16;53.40
36378;BME280;22402;42.746;23.606;2022-09-09T14:53:41;93475.72;;;27.15;53.01
36378;BME280;22402;42.746;23.606;2022-09-09T14:56:09;93482.91;;;27.14;53.45
36378;BME280;22402;42.746;23.606;2022-09-09T14:58:35;93487.81;;;27.17;52.79
36378;BME280;22402;42.746;23.606;2022-09-09T15:01:05;93487.25;;;27.15;53.59
36378;BME280;22402;42.746;23.606;2022-09-09T15:03:31;93494.53;;;27.20;54.15
36378;BME280;22402;42.746;23.606;2022-09-09T15:05:57;93496.72;;;27.23;54.38
36378;BME280;22402;42.746;23.606;2022-09-09T15:08:22;93485.03;;;27.29;53.93
36378;BME280;22402;42.746;23.606;2022-09-09T15:10:47;93483.16;;;27.30;53.32
36378;BME280;22402;42.746;23.606;2022-09-09T15:13:14;93479.69;;;27.29;54.25
36378;BME280;22402;42.746;23.606;2022-09-09T15:15:40;93484.31;;;27.34;54.01
36378;BME280;22402;42.746;23.606;2022-09-09T15:18:05;93481.94;;;27.37;53.14
36378;BME280;22402;42.746;23.606;2022-09-09T15:20:30;93477.91;;;27.35;54.03